createdAt,value
2018-05-09T00:00:49.043Z,100503.09
2018-05-09T00:03:16.535Z,100501.74
2018-05-09T00:05:44.049Z,100496.27
2018-05-09T00:08:11.545Z,100498.63
2018-05-09T00:10:39.141Z,100500.69
2018-05-09T00:13:06.627Z,100495.81
2018-05-09T00:15:34.082Z,100504.31
2018-05-09T00:18:01.539Z,100496.09
2018-05-09T00:20:29.030Z,100499.38
2018-05-09T00:22:56.537Z,100503.91
2018-05-09T00:25:24.013Z,100501.87
2018-05-09T00:27:51.473Z,100499.01
2018-05-09T00:30:18.935Z,100497.77
2018-05-09T00:32:46.428Z,100497.92
2018-05-09T00:35:13.921Z,100492.44
2018-05-09T00:37:41.412Z,100492.06
2018-05-09T00:40:08.901Z,100494.54
2018-05-09T00:42:36.394Z,100495.00
2018-05-09T00:45:03.875Z,100489.30
2018-05-09T00:47:31.365Z,100484.92
2018-05-09T00:49:58.887Z,100483.98
2018-05-09T00:52:26.413Z,100482.88
2018-05-09T00:54:53.879Z,100479.89
2018-05-09T00:57:21.419Z,100474.16
2018-05-09T00:59:48.879Z,100478.80
2018-05-09T01:02:16.360Z,100475.25
2018-05-09T01:04:43.934Z,100472.39
2018-05-09T01:07:11.414Z,100473.36
2018-05-09T01:09:38.935Z,100470.08
2018-05-09T01:12:06.412Z,100472.67
2018-05-09T01:14:33.894Z,100471.72
2018-05-09T01:17:01.409Z,100472.11
2018-05-09T01:19:28.888Z,100472.67
2018-05-09T01:21:56.382Z,100465.84
2018-05-09T01:24:23.843Z,100464.22
2018-05-09T01:26:51.336Z,100464.20
2018-05-09T01:29:18.826Z,100460.50
2018-05-09T01:31:46.329Z,100456.55
2018-05-09T01:34:13.834Z,100455.47
2018-05-09T01:36:41.292Z,100459.70
2018-05-09T01:39:08.786Z,100451.09
2018-05-09T01:41:36.305Z,100453.69
2018-05-09T01:44:03.789Z,100453.55
2018-05-09T01:46:31.438Z,100448.08
2018-05-09T01:48:58.940Z,100447.00
2018-05-09T01:51:26.450Z,100453.00
2018-05-09T01:53:54.018Z,100445.34
2018-05-09T01:56:21.497Z,100442.47
2018-05-09T01:58:49.073Z,100445.22
2018-05-09T02:01:16.645Z,100441.52
2018-05-09T02:03:44.105Z,100439.08
2018-05-09T02:06:11.637Z,100439.48
2018-05-09T02:08:39.094Z,100438.38
2018-05-09T02:11:06.679Z,100442.08
2018-05-09T02:13:34.177Z,100440.98
2018-05-09T02:16:01.630Z,100447.82
2018-05-09T02:18:29.211Z,100442.50
2018-05-09T02:20:56.707Z,100443.32
2018-05-09T02:23:24.155Z,100444.02
2018-05-09T02:25:51.661Z,100445.77
2018-05-09T02:28:19.153Z,100445.36
2018-05-09T02:30:46.608Z,100440.30
2018-05-09T02:33:14.105Z,100441.27
2018-05-09T02:35:41.589Z,100432.10
2018-05-09T02:38:09.107Z,100431.28
2018-05-09T02:40:36.649Z,100422.38
2018-05-09T02:43:04.134Z,100427.59
2018-05-09T02:45:31.629Z,100432.25
2018-05-09T02:47:59.171Z,100426.22
2018-05-09T02:50:26.643Z,100424.97
2018-05-09T02:52:54.146Z,100430.73
2018-05-09T02:55:21.675Z,100426.89
2018-05-09T02:57:49.136Z,100423.42
2018-05-09T03:00:16.601Z,100424.94
2018-05-09T03:02:44.198Z,100426.85
2018-05-09T03:05:11.689Z,100415.10
2018-05-09T03:07:39.172Z,100422.60
2018-05-09T03:10:06.699Z,100422.19
2018-05-09T03:12:34.150Z,100421.23
2018-05-09T03:15:01.612Z,100424.23
2018-05-09T03:17:29.117Z,100427.66
2018-05-09T03:19:56.618Z,100425.59
2018-05-09T03:22:24.080Z,100421.09
2018-05-09T03:24:51.568Z,100412.77
2018-05-09T03:27:19.145Z,100420.13
2018-05-09T03:29:46.679Z,100415.91
2018-05-09T03:32:14.437Z,100418.09
2018-05-09T03:34:41.949Z,100411.41
2018-05-09T03:37:09.418Z,100406.76
2018-05-09T03:39:36.988Z,100415.52
2018-05-09T03:42:04.476Z,100416.88
2018-05-09T03:44:31.966Z,100418.77
2018-05-09T03:46:59.481Z,100415.63
2018-05-09T03:49:27.023Z,100420.17
2018-05-09T03:51:54.525Z,100420.31
2018-05-09T03:54:22.043Z,100418.25
2018-05-09T03:56:49.508Z,100410.64
2018-05-09T03:59:17.034Z,100406.53
2018-05-09T04:01:56.228Z,100410.78
2018-05-09T04:04:35.593Z,100403.95
2018-05-09T04:07:15.112Z,100405.45
2018-05-09T04:09:55.574Z,100414.61
2018-05-09T04:12:23.050Z,100416.92
2018-05-09T04:14:50.602Z,100418.16
2018-05-09T04:17:18.091Z,100415.27
2018-05-09T04:19:45.592Z,100414.17
2018-05-09T04:22:13.111Z,100407.75
2018-05-09T04:24:40.621Z,100415.06
2018-05-09T04:27:08.086Z,100425.88
2018-05-09T04:29:35.632Z,100421.47
2018-05-09T04:32:03.117Z,100426.13
2018-05-09T04:34:30.588Z,100419.84
2018-05-09T04:36:58.109Z,100426.02
2018-05-09T04:39:25.585Z,100427.37
2018-05-09T04:41:53.121Z,100429.70
2018-05-09T04:44:20.525Z,100425.91
2018-05-09T04:46:47.985Z,100425.32
2018-05-09T04:49:15.548Z,100426.55
2018-05-09T04:51:43.006Z,100423.54
2018-05-09T04:54:10.505Z,100425.88
2018-05-09T04:56:38.022Z,100422.81
2018-05-09T04:59:05.556Z,100422.84
2018-05-09T05:01:33.050Z,100419.09
2018-05-09T05:04:00.511Z,100424.67
2018-05-09T05:06:28.021Z,100423.13
2018-05-09T05:08:55.511Z,100409.11
2018-05-09T05:11:23.020Z,100414.59
2018-05-09T05:13:50.558Z,100415.46
2018-05-09T05:16:18.103Z,100413.88
2018-05-09T05:18:45.704Z,100424.63
2018-05-09T05:21:13.190Z,100419.89
2018-05-09T05:23:40.704Z,100420.13
2018-05-09T05:26:08.187Z,100421.97
2018-05-09T05:28:35.669Z,100421.28
2018-05-09T05:31:03.129Z,100414.31
2018-05-09T05:33:30.637Z,100422.13
2018-05-09T05:35:58.127Z,100420.95
2018-05-09T05:38:25.702Z,100420.53
2018-05-09T05:40:53.181Z,100419.72
2018-05-09T05:43:20.698Z,100423.45
2018-05-09T05:45:48.196Z,100417.16
2018-05-09T05:48:15.669Z,100431.25
2018-05-09T05:50:43.176Z,100433.03
2018-05-09T05:53:10.654Z,100434.87
2018-05-09T05:55:38.135Z,100426.82
2018-05-09T05:58:05.645Z,100421.63
2018-05-09T06:00:33.100Z,100433.65
2018-05-09T06:03:00.609Z,100431.74
2018-05-09T06:05:28.093Z,100429.78
2018-05-09T06:07:55.608Z,100427.88
2018-05-09T06:10:23.121Z,100422.25
2018-05-09T06:12:50.582Z,100423.89
2018-05-09T06:15:18.055Z,100424.73
2018-05-09T06:17:45.550Z,100422.33
2018-05-09T06:20:13.003Z,100421.92
2018-05-09T06:22:40.500Z,100422.89
2018-05-09T06:25:07.962Z,100423.28
2018-05-09T06:27:35.468Z,100427.25
2018-05-09T06:30:02.977Z,100424.77
2018-05-09T06:32:30.436Z,100422.09
2018-05-09T06:34:57.941Z,100428.78
2018-05-09T06:37:25.512Z,100431.09
2018-05-09T06:39:52.974Z,100435.19
2018-05-09T06:42:20.432Z,100438.28
2018-05-09T06:44:47.945Z,100442.91
2018-05-09T06:47:15.448Z,100438.97
2018-05-09T06:49:42.944Z,100433.59
2018-05-09T06:52:10.449Z,100440.79
2018-05-09T06:54:37.905Z,100444.86
2018-05-09T06:57:05.360Z,100443.63
2018-05-09T06:59:32.871Z,100446.57
2018-05-09T07:02:00.332Z,100439.61
2018-05-09T07:04:27.788Z,100450.23
2018-05-09T07:06:55.383Z,100440.55
2018-05-09T07:09:22.875Z,100445.03
2018-05-09T07:11:50.368Z,100444.09
2018-05-09T07:14:17.926Z,100441.15
2018-05-09T07:16:45.397Z,100439.81
2018-05-09T07:19:12.894Z,100446.95
2018-05-09T07:21:40.409Z,100449.10
2018-05-09T07:24:07.864Z,100449.09
2018-05-09T07:26:35.372Z,100452.20
2018-05-09T07:29:02.993Z,100449.27
2018-05-09T07:31:30.493Z,100446.66
2018-05-09T07:33:57.965Z,100446.05
2018-05-09T07:36:25.542Z,100454.84
2018-05-09T07:38:53.117Z,100462.82
2018-05-09T07:41:20.597Z,100452.84
2018-05-09T07:43:48.117Z,100445.59
2018-05-09T07:46:15.673Z,100447.14
2018-05-09T07:48:43.184Z,100445.67
2018-05-09T07:51:10.842Z,100451.32
2018-05-09T07:53:38.359Z,100438.34
2018-05-09T07:56:05.847Z,100440.70
2018-05-09T07:58:33.298Z,100441.67
2018-05-09T08:01:00.892Z,100441.13
2018-05-09T08:03:28.355Z,100433.98
2018-05-09T08:05:56.173Z,100437.75
2018-05-09T08:08:23.670Z,100439.52
2018-05-09T08:10:51.209Z,100434.61
2018-05-09T08:13:18.689Z,100441.44
2018-05-09T08:15:46.171Z,100442.72
2018-05-09T08:18:13.656Z,100433.32
2018-05-09T08:20:41.193Z,100437.16
2018-05-09T08:23:08.788Z,100436.36
2018-05-09T08:25:36.303Z,100436.02
2018-05-09T08:28:03.760Z,100438.44
2018-05-09T08:30:31.261Z,100435.47
2018-05-09T08:32:58.837Z,100429.42
2018-05-09T08:35:26.334Z,100432.55
2018-05-09T08:37:53.801Z,100431.27
2018-05-09T08:40:21.400Z,100435.38
2018-05-09T08:42:48.894Z,100437.01
2018-05-09T08:45:16.356Z,100438.31
2018-05-09T08:47:43.873Z,100449.10
2018-05-09T08:50:11.357Z,100446.13
2018-05-09T08:52:38.808Z,100447.28
2018-05-09T08:55:06.346Z,100446.33
2018-05-09T08:57:33.820Z,100436.03
2018-05-09T09:00:01.339Z,100435.61
2018-05-09T09:02:28.833Z,100432.41
2018-05-09T09:04:56.294Z,100432.16
2018-05-09T09:07:23.833Z,100429.47
2018-05-09T09:09:51.349Z,100427.23
2018-05-09T09:12:19.056Z,100424.25
2018-05-09T09:14:46.560Z,100425.36
2018-05-09T09:17:14.356Z,100425.43
2018-05-09T09:19:42.025Z,100428.52
2018-05-09T09:22:09.996Z,100415.06
2018-05-09T09:24:37.517Z,100416.81
2018-05-09T09:27:04.999Z,100422.31
2018-05-09T09:29:32.499Z,100414.89
2018-05-09T09:32:00.022Z,100420.01
2018-05-09T09:34:27.552Z,100411.78
2018-05-09T09:36:55.451Z,100410.27
2018-05-09T09:39:22.938Z,100406.00
2018-05-09T09:41:50.508Z,100412.76
2018-05-09T09:44:17.976Z,100402.20
2018-05-09T09:46:45.461Z,100411.25
2018-05-09T09:49:12.988Z,100401.45
2018-05-09T09:51:40.481Z,100399.66
2018-05-09T09:54:07.983Z,100394.38
2018-05-09T09:56:35.555Z,100397.81
2018-05-09T09:59:03.060Z,100407.33
2018-05-09T10:01:30.526Z,100395.38
2018-05-09T10:03:58.022Z,100379.30
2018-05-09T10:06:25.583Z,100381.50
2018-05-09T10:08:53.061Z,100380.72
2018-05-09T10:11:20.551Z,100378.90
2018-05-09T10:13:48.069Z,100375.33
2018-05-09T10:16:15.606Z,100373.06
2018-05-09T10:18:43.003Z,100372.17
2018-05-09T10:21:10.493Z,100372.86
2018-05-09T10:23:37.974Z,100375.53
2018-05-09T10:26:05.508Z,100375.13
2018-05-09T10:28:33.117Z,100383.63
2018-05-09T10:31:00.585Z,100382.83
2018-05-09T10:33:28.060Z,100375.50
2018-05-09T10:35:55.634Z,100372.95
2018-05-09T10:38:23.051Z,100367.37
2018-05-09T10:40:50.544Z,100379.47
2018-05-09T10:43:18.054Z,100375.20
2018-05-09T10:45:45.560Z,100369.81
2018-05-09T10:48:13.048Z,100369.00
2018-05-09T10:50:40.530Z,100361.12
2018-05-09T10:53:08.024Z,100361.12
2018-05-09T10:55:35.508Z,100365.77
2018-05-09T10:58:03.086Z,100353.86
2018-05-09T11:00:30.580Z,100350.56
2018-05-09T11:02:58.084Z,100351.83
2018-05-09T11:05:25.578Z,100350.66
2018-05-09T11:07:53.045Z,100353.73
2018-05-09T11:10:20.524Z,100351.23
2018-05-09T11:12:48.004Z,100353.70
2018-05-09T11:15:15.501Z,100348.33
2018-05-09T11:17:42.991Z,100338.09
2018-05-09T11:20:10.503Z,100338.22
2018-05-09T11:22:38.003Z,100344.62
2018-05-09T11:25:05.503Z,100343.30
2018-05-09T11:27:32.998Z,100344.55
2018-05-09T11:30:00.485Z,100347.47
2018-05-09T11:32:28.018Z,100338.68
2018-05-09T11:34:55.520Z,100339.05
2018-05-09T11:37:23.084Z,100343.08
2018-05-09T11:39:50.536Z,100329.81
2018-05-09T11:42:18.086Z,100337.38
2018-05-09T11:44:45.593Z,100327.83
2018-05-09T11:47:13.129Z,100326.99
2018-05-09T11:49:40.676Z,100331.72
2018-05-09T11:52:08.146Z,100335.44
2018-05-09T11:54:35.598Z,100341.41
2018-05-09T11:57:03.107Z,100324.17
2018-05-09T11:59:30.696Z,100324.26
2018-05-09T12:01:58.193Z,100328.45
2018-05-09T12:04:25.712Z,100322.55
2018-05-09T12:06:53.193Z,100321.80
2018-05-09T12:09:20.659Z,100311.63
2018-05-09T12:11:48.165Z,100315.12
2018-05-09T12:14:15.749Z,100304.81
2018-05-09T12:16:43.210Z,100307.81
2018-05-09T12:19:10.807Z,100312.95
2018-05-09T12:21:38.357Z,100302.91
2018-05-09T12:24:05.810Z,100301.98
2018-05-09T12:26:35.514Z,100287.53
2018-05-09T12:29:03.034Z,100291.48
2018-05-09T12:31:30.551Z,100279.77
2018-05-09T12:33:58.042Z,100281.09
2018-05-09T12:36:25.520Z,100279.88
2018-05-09T12:38:52.975Z,100281.55
2018-05-09T12:41:20.492Z,100277.03
2018-05-09T12:43:47.970Z,100278.05
2018-05-09T12:46:15.452Z,100269.30
2018-05-09T12:48:42.999Z,100268.41
2018-05-09T12:51:10.433Z,100276.45
2018-05-09T12:53:37.925Z,100273.52
2018-05-09T12:56:05.435Z,100270.56
2018-05-09T12:58:32.955Z,100263.58
2018-05-09T13:01:00.494Z,100257.95
2018-05-09T13:03:27.986Z,100266.98
2018-05-09T13:05:55.478Z,100262.12
2018-05-09T13:08:22.960Z,100254.23
2018-05-09T13:10:50.418Z,100240.45
2018-05-09T13:13:18.101Z,100256.04
2018-05-09T13:15:45.534Z,100247.27
2018-05-09T13:18:13.013Z,100256.83
2018-05-09T13:20:40.497Z,100245.61
2018-05-09T13:23:07.953Z,100241.52
2018-05-09T13:25:35.408Z,100242.35
2018-05-09T13:28:02.876Z,100242.97
2018-05-09T13:30:30.392Z,100239.79
2018-05-09T13:32:57.873Z,100235.59
2018-05-09T13:35:25.432Z,100242.69
2018-05-09T13:37:52.888Z,100234.29
2018-05-09T13:40:20.578Z,100244.66
2018-05-09T13:42:48.040Z,100237.89
2018-05-09T13:45:15.510Z,100234.56
2018-05-09T13:47:43.021Z,100229.02
2018-05-09T13:50:10.614Z,100224.87
2018-05-09T13:52:38.249Z,100215.52
2018-05-09T13:55:05.736Z,100214.39
2018-05-09T13:57:33.229Z,100214.74
2018-05-09T14:00:00.732Z,100209.02
2018-05-09T14:02:28.236Z,100210.56
2018-05-09T14:04:55.864Z,100209.03
2018-05-09T14:07:23.325Z,100212.83
2018-05-09T14:09:50.814Z,100207.58
2018-05-09T14:12:18.333Z,100200.13
2018-05-09T14:14:45.787Z,100203.92
2018-05-09T14:17:13.280Z,100198.91
2018-05-09T14:19:40.818Z,100198.77
2018-05-09T14:22:08.354Z,100185.66
2018-05-09T14:24:35.863Z,100188.34
2018-05-09T14:27:03.370Z,100180.99
2018-05-09T14:29:30.871Z,100178.53
2018-05-09T14:31:58.396Z,100184.80
2018-05-09T14:34:25.917Z,100176.66
2018-05-09T14:36:53.383Z,100166.31
2018-05-09T14:39:20.956Z,100165.70
2018-05-09T14:41:48.427Z,100171.55
2018-05-09T14:44:15.922Z,100166.31
2018-05-09T14:46:43.491Z,100157.30
2018-05-09T14:49:10.929Z,100159.06
2018-05-09T14:51:38.431Z,100163.80
2018-05-09T14:54:06.013Z,100156.38
2018-05-09T14:56:34.472Z,100151.49
2018-05-09T14:59:01.932Z,100157.08
2018-05-09T15:01:29.445Z,100156.22
2018-05-09T15:03:56.936Z,100154.49
2018-05-09T15:06:24.564Z,100151.89
2018-05-09T15:08:52.021Z,100151.25
2018-05-09T15:11:19.616Z,100151.09
2018-05-09T15:13:47.206Z,100153.82
2018-05-09T15:16:14.660Z,100153.32
2018-05-09T15:18:42.255Z,100146.29
2018-05-09T15:21:09.799Z,100138.67
2018-05-09T15:23:37.245Z,100150.66
2018-05-09T15:26:04.706Z,100147.17
2018-05-09T15:28:32.223Z,100150.74
2018-05-09T15:30:59.709Z,100151.45
2018-05-09T15:33:27.208Z,100141.09
2018-05-09T15:35:54.695Z,100141.89
2018-05-09T15:38:22.192Z,100140.88
2018-05-09T15:40:49.710Z,100137.88
2018-05-09T15:43:17.170Z,100133.69
2018-05-09T15:45:44.757Z,100133.23
2018-05-09T15:48:12.234Z,100128.06
2018-05-09T15:50:39.775Z,100132.37
2018-05-09T15:53:07.264Z,100126.97
2018-05-09T15:55:34.797Z,100127.30
2018-05-09T15:58:02.251Z,100127.12
2018-05-09T16:00:29.754Z,100127.03
2018-05-09T16:02:57.237Z,100118.69
2018-05-09T16:05:24.683Z,100120.62
2018-05-09T16:07:52.146Z,100115.22
2018-05-09T16:10:19.679Z,100106.18
2018-05-09T16:12:47.158Z,100105.27
2018-05-09T16:15:14.650Z,100102.33
2018-05-09T16:17:42.136Z,100099.44
2018-05-09T16:20:09.776Z,100098.28
2018-05-09T16:22:37.213Z,100100.48
2018-05-09T16:25:04.755Z,100099.16
2018-05-09T16:27:32.355Z,100094.77
2018-05-09T16:29:59.878Z,100098.02
2018-05-09T16:32:27.763Z,100100.23
2018-05-09T16:34:55.241Z,100100.55
2018-05-09T16:37:22.850Z,100093.06
2018-05-09T16:39:50.342Z,100097.91
2018-05-09T16:42:17.799Z,100091.83
2018-05-09T16:44:45.265Z,100102.42
2018-05-09T16:47:12.724Z,100103.17
2018-05-09T16:49:40.221Z,100107.22
2018-05-09T16:52:07.764Z,100110.41
2018-05-09T16:54:35.294Z,100108.59
2018-05-09T16:57:02.785Z,100114.09
2018-05-09T16:59:30.281Z,100108.13
2018-05-09T17:01:57.786Z,100107.27
2018-05-09T17:04:25.270Z,100108.71
2018-05-09T17:06:52.728Z,100102.03
2018-05-09T17:09:20.238Z,100102.26
2018-05-09T17:11:47.721Z,100102.89
2018-05-09T17:14:15.296Z,100099.87
2018-05-09T17:16:42.805Z,100100.17
2018-05-09T17:19:10.286Z,100097.05
2018-05-09T17:21:46.513Z,100094.89
2018-05-09T17:24:14.001Z,100093.29
2018-05-09T17:26:41.550Z,100103.02
2018-05-09T17:29:09.009Z,100105.61
2018-05-09T17:31:36.463Z,100104.93
2018-05-09T17:34:03.977Z,100101.09
2018-05-09T17:36:31.439Z,100107.77
2018-05-09T17:38:58.916Z,100106.69
2018-05-09T17:41:26.477Z,100107.15
2018-05-09T17:43:53.985Z,100130.62
2018-05-09T17:46:21.444Z,100156.28
2018-05-09T17:48:48.952Z,100147.32
2018-05-09T17:51:16.432Z,100158.72
2018-05-09T17:53:43.899Z,100152.93
2018-05-09T17:56:11.575Z,100155.06
2018-05-09T17:58:39.105Z,100153.62
2018-05-09T18:01:06.617Z,100140.62
2018-05-09T18:06:08.126Z,100166.69
2018-05-09T18:08:35.674Z,100167.58
2018-05-09T18:11:03.227Z,100155.89
2018-05-09T18:13:30.744Z,100148.59
2018-05-09T18:15:58.450Z,100142.73
2018-05-09T18:18:25.937Z,100150.83
2018-05-09T18:20:53.496Z,100141.03
2018-05-09T18:23:20.950Z,100139.14
2018-05-09T18:25:48.542Z,100131.97
2018-05-09T18:28:15.984Z,100122.78
2018-05-09T18:30:43.482Z,100124.21
2018-05-09T18:33:10.970Z,100110.70
2018-05-09T18:35:38.581Z,100117.33
2018-05-09T18:38:06.039Z,100119.97
2018-05-09T18:40:33.765Z,100119.67
2018-05-09T18:43:01.364Z,100118.56
2018-05-09T18:45:28.872Z,100114.67
2018-05-09T18:47:56.414Z,100117.08
2018-05-09T18:50:23.873Z,100115.98
2018-05-09T18:52:51.464Z,100120.84
2018-05-09T18:55:19.049Z,100108.41
2018-05-09T18:57:46.539Z,100104.22
2018-05-09T19:00:14.062Z,100105.48
2018-05-09T19:02:41.564Z,100098.42
2018-05-09T19:05:09.077Z,100102.69
2018-05-09T19:07:36.608Z,100100.73
2018-05-09T19:10:04.076Z,100098.15
2018-05-09T19:12:31.570Z,100100.56
2018-05-09T19:14:59.065Z,100106.58
2018-05-09T19:17:26.535Z,100106.23
2018-05-09T19:19:54.013Z,100111.39
2018-05-09T19:22:21.480Z,100115.41
2018-05-09T19:24:48.968Z,100114.06
2018-05-09T19:27:16.452Z,100116.90
2018-05-09T19:29:43.985Z,100120.89
2018-05-09T19:32:11.575Z,100125.72
2018-05-09T19:34:39.032Z,100124.80
2018-05-09T19:37:06.545Z,100122.78
2018-05-09T19:39:34.023Z,100127.20
2018-05-09T19:42:01.492Z,100117.98
2018-05-09T19:44:28.993Z,100119.30
2018-05-09T19:46:56.456Z,100124.05
2018-05-09T19:49:23.972Z,100121.13
2018-05-09T19:51:51.432Z,100118.56
2018-05-09T19:54:18.943Z,100113.84
2018-05-09T19:56:46.482Z,100115.63
2018-05-09T19:59:13.956Z,100110.98
2018-05-09T20:01:41.458Z,100111.68
2018-05-09T20:04:08.981Z,100104.86
2018-05-09T20:06:36.487Z,100107.15
2018-05-09T20:09:03.987Z,100102.45
2018-05-09T20:11:31.477Z,100107.03
2018-05-09T20:13:59.039Z,100104.22
2018-05-09T20:16:26.441Z,100100.94
2018-05-09T20:18:53.999Z,100106.58
2018-05-09T20:21:21.502Z,100102.61
2018-05-09T20:23:48.994Z,100097.00
2018-05-09T20:26:16.508Z,100098.84
2018-05-09T20:28:49.983Z,100098.64
2018-05-09T20:31:35.240Z,100107.59
2018-05-09T20:34:02.747Z,100102.88
2018-05-09T20:36:30.214Z,100108.36
2018-05-09T20:38:57.698Z,100107.19
2018-05-09T20:41:25.286Z,100113.72
2018-05-09T20:43:52.677Z,100111.42
2018-05-09T20:46:20.228Z,100118.41
2018-05-09T20:48:47.700Z,100127.55
2018-05-09T20:51:15.201Z,100124.81
2018-05-09T20:53:42.679Z,100140.23
2018-05-09T20:56:10.252Z,100136.93
2018-05-09T20:58:37.758Z,100140.55
2018-05-09T21:04:11.329Z,100136.70
2018-05-09T21:06:38.852Z,100136.15
2018-05-09T21:09:06.365Z,100132.95
2018-05-09T21:11:33.893Z,100138.62
2018-05-09T21:14:01.363Z,100128.87
2018-05-09T21:16:28.833Z,100137.52
2018-05-09T21:18:56.409Z,100125.70
2018-05-09T21:21:23.892Z,100134.56
2018-05-09T21:23:51.411Z,100126.58
2018-05-09T21:26:18.884Z,100124.80
2018-05-09T21:28:46.366Z,100129.55
2018-05-09T21:31:13.925Z,100122.80
2018-05-09T21:33:41.480Z,100127.61
2018-05-09T21:36:08.975Z,100124.59
2018-05-09T21:38:36.461Z,100120.38
2018-05-09T21:41:03.997Z,100125.56
2018-05-09T21:43:31.480Z,100122.56
2018-05-09T21:45:58.992Z,100116.84
2018-05-09T21:48:26.480Z,100113.34
2018-05-09T21:50:54.021Z,100104.73
2018-05-09T21:53:21.550Z,100110.53
2018-05-09T21:55:49.142Z,100113.16
2018-05-09T21:58:16.597Z,100111.39
2018-05-09T22:00:44.126Z,100115.06
2018-05-09T22:03:11.628Z,100105.83
2018-05-09T22:05:39.120Z,100102.73
2018-05-09T22:08:06.638Z,100107.20
2018-05-09T22:10:34.203Z,100109.44
2018-05-09T22:13:01.698Z,100101.53
2018-05-09T22:15:29.204Z,100104.84
2018-05-09T22:17:56.682Z,100099.65
2018-05-09T22:20:24.165Z,100095.06
2018-05-09T22:22:51.679Z,100097.39
2018-05-09T22:25:19.213Z,100094.05
2018-05-09T22:27:46.782Z,100091.86
2018-05-09T22:30:14.235Z,100087.18
2018-05-09T22:32:41.732Z,100085.34
2018-05-09T22:35:09.208Z,100086.03
2018-05-09T22:37:36.726Z,100086.19
2018-05-09T22:40:04.233Z,100090.58
2018-05-09T22:42:31.720Z,100086.54
2018-05-09T22:44:59.268Z,100077.36
2018-05-09T22:47:26.877Z,100077.34
2018-05-09T22:49:54.381Z,100081.26
2018-05-09T22:52:21.881Z,100082.56
2018-05-09T22:54:49.527Z,100076.55
2018-05-09T22:57:16.950Z,100074.20
2018-05-09T22:59:44.403Z,100082.81
2018-05-09T23:02:11.906Z,100072.34
2018-05-09T23:04:39.556Z,100076.17
2018-05-09T23:07:07.174Z,100074.39
2018-05-09T23:09:34.796Z,100081.50
2018-05-09T23:12:02.358Z,100078.19
2018-05-09T23:14:29.870Z,100075.20
2018-05-09T23:16:57.388Z,100080.17
2018-05-09T23:19:24.945Z,100074.20
2018-05-09T23:21:52.484Z,100069.86
2018-05-09T23:24:19.972Z,100068.08
2018-05-09T23:26:47.461Z,100064.53
2018-05-09T23:29:14.981Z,100062.60
2018-05-09T23:31:42.447Z,100061.95
2018-05-09T23:34:09.930Z,100062.52
2018-05-09T23:36:37.661Z,100059.70
2018-05-09T23:39:05.123Z,100054.34
2018-05-09T23:41:32.652Z,100059.97
2018-05-09T23:44:00.125Z,100055.98
2018-05-09T23:46:27.613Z,100054.56
2018-05-09T23:48:55.248Z,100060.22
2018-05-09T23:51:22.719Z,100067.93
2018-05-09T23:53:50.217Z,100069.63
2018-05-09T23:56:17.730Z,100068.67
2018-05-09T23:58:45.256Z,100068.27
